Time;durP1;ratioP1;P1;durP2;ratioP2;P2;SDS_P1;SDS_P2;PMS_P1;PMS_P2;Temp;Humidity;BMP_temperature;BMP_pressure;BME280_temperature;BME280_humidity;BME280_pressure;Samples;Min_cycle;Max_cycle;Signal;HPM_P1;HPM_P2
2022/10/23 00:00:52;;;;;;;;;;;;;;;11.53;100.00;100482.28;5011599;28;19921;-94
2022/10/23 00:03:18;;;;;;;;;;;;;;;11.53;100.00;100490.63;5011314;28;20329;-94
2022/10/23 00:05:43;;;;;;;;;;;;;;;11.55;100.00;100494.56;4995048;28;19924;-93
2022/10/23 00:08:09;;;;;;;;;;;;;;;11.59;100.00;100498.03;5011592;28;19922;-95
2022/10/23 00:10:34;;;;;;;;;;;;;;;11.61;100.00;100503.13;5011980;28;19917;-93
2022/10/23 00:13:00;;;;;;;;;;;;;;;11.63;100.00;100507.06;4995135;28;19921;-93
2022/10/23 00:15:26;;;;;;;;;;;;;;;11.65;100.00;100498.28;4995789;28;19921;-94
2022/10/23 00:17:51;;;;;;;;;;;;;;;11.62;100.00;100504.69;4995593;28;19968;-79
2022/10/23 00:20:17;;;;;;;;;;;;;;;11.64;100.00;100503.06;5011474;28;19924;-78
2022/10/23 00:22:42;;;;;;;;;;;;;;;11.65;100.00;100495.50;5000252;28;19994;-78
2022/10/23 00:25:08;;;;;;;;;;;;;;;11.65;100.00;100492.72;4976720;28;19944;-78
2022/10/23 00:27:33;;;;;;;;;;;;;;;11.67;100.00;100496.63;4994410;28;19924;-78
2022/10/23 00:29:59;;;;;;;;;;;;;;;11.68;100.00;100495.44;5000745;28;20007;-78
2022/10/23 00:32:25;;;;;;;;;;;;;;;11.69;100.00;100496.19;4990686;28;20371;-78
2022/10/23 00:34:50;;;;;;;;;;;;;;;11.70;100.00;100494.97;4990584;28;20359;-79
2022/10/23 00:37:15;;;;;;;;;;;;;;;11.71;100.00;100502.13;5010806;28;20011;-95
2022/10/23 00:39:41;;;;;;;;;;;;;;;11.65;100.00;100489.94;4994252;28;19917;-78
2022/10/23 00:42:09;;;;;;;;;;;;;;;11.66;100.00;100494.28;5010380;28;19917;-78
2022/10/23 00:44:34;;;;;;;;;;;;;;;11.67;100.00;100495.84;4990164;28;19917;-78
2022/10/23 00:46:59;;;;;;;;;;;;;;;11.68;100.00;100497.44;4992462;28;19917;-78
2022/10/23 00:49:26;;;;;;;;;;;;;;;11.64;100.00;100491.16;4988647;28;19968;-78
2022/10/23 00:51:53;;;;;;;;;;;;;;;11.62;100.00;100490.81;5001405;28;19925;-78
2022/10/23 00:54:19;;;;;;;;;;;;;;;11.59;100.00;100491.69;4965406;28;19924;-78
2022/10/23 00:56:44;;;;;;;;;;;;;;;11.61;100.00;100492.00;4980351;28;20283;-78
2022/10/23 00:59:10;;;;;;;;;;;;;;;11.58;100.00;100490.09;4994848;28;19964;-78
2022/10/23 01:04:13;;;;;;;;;;;;;;;11.61;100.00;100481.69;5019475;23;19921;-80
2022/10/23 01:06:41;;;;;;;;;;;;;;;11.63;100.00;100484.03;5006640;28;19918;-80
2022/10/23 01:09:06;;;;;;;;;;;;;;;11.60;100.00;100485.69;4992193;28;20377;-80
2022/10/23 01:11:39;;;;;;;;;;;;;;;11.60;100.00;100476.59;5013781;28;19909;-80
2022/10/23 01:14:09;;;;;;;;;;;;;;;11.63;100.00;100470.16;4990634;28;19918;-80
2022/10/23 01:16:37;;;;;;;;;;;;;;;11.63;100.00;100478.50;4991589;28;20015;-80
2022/10/23 01:19:08;;;;;;;;;;;;;;;11.63;100.00;100475.72;4991771;28;19914;-79
2022/10/23 01:21:37;;;;;;;;;;;;;;;11.63;100.00;100478.50;4991673;28;20021;-80
2022/10/23 01:24:10;;;;;;;;;;;;;;;11.65;100.00;100476.81;4991098;28;19921;-80
2022/10/23 01:26:56;;;;;;;;;;;;;;;11.63;100.00;100478.50;4973381;28;19961;-80
2022/10/23 01:29:51;;;;;;;;;;;;;;;11.66;100.00;100474.84;4971726;28;20339;-80
2022/10/23 01:32:32;;;;;;;;;;;;;;;11.65;100.00;100476.81;4963146;28;19921;-79
2022/10/23 01:35:02;;;;;;;;;;;;;;;11.63;100.00;100473.72;4980525;28;19918;-79
2022/10/23 01:37:44;;;;;;;;;;;;;;;11.60;100.00;100476.59;4984101;28;19917;-80
2022/10/23 01:40:14;;;;;;;;;;;;;;;11.59;100.00;100475.78;4990832;28;19922;-80
2022/10/23 01:42:40;;;;;;;;;;;;;;;11.57;100.00;100480.19;4991192;28;19925;-80
2022/10/23 01:45:08;;;;;;;;;;;;;;;11.56;100.00;100478.66;4991359;28;20388;-80
2022/10/23 01:47:39;;;;;;;;;;;;;;;11.55;100.00;100477.88;4990853;28;20373;-80
2022/10/23 01:50:07;;;;;;;;;;;;;;;11.55;100.00;100483.44;4990837;28;19913;-80
2022/10/23 01:52:32;;;;;;;;;;;;;;;11.56;100.00;100481.44;4991215;28;19917;-80
2022/10/23 01:54:59;;;;;;;;;;;;;;;11.59;100.00;100478.56;4975046;28;20403;-80
2022/10/23 01:57:25;;;;;;;;;;;;;;;11.58;100.00;100471.44;4990803;28;20380;-80
2022/10/23 02:00:01;;;;;;;;;;;;;;;11.52;100.00;100472.41;4974752;28;19922;-80
2022/10/23 02:02:27;;;;;;;;;;;;;;;11.39;100.00;100479.84;4990858;28;19921;-80
2022/10/23 02:05:01;;;;;;;;;;;;;;;11.43;100.00;100480.56;4978167;28;20349;-80
2022/10/23 02:07:27;;;;;;;;;;;;;;;11.45;100.00;100481.66;4995051;28;19922;-80
2022/10/23 02:09:52;;;;;;;;;;;;;;;11.45;100.00;100480.88;4995919;28;20288;-80
2022/10/23 02:12:23;;;;;;;;;;;;;;;11.48;100.00;100480.03;4977016;28;20285;-80
2022/10/23 02:14:50;;;;;;;;;;;;;;;11.43;100.00;100486.09;4977650;28;19921;-80
2022/10/23 02:17:34;;;;;;;;;;;;;;;11.40;100.00;100486.97;4995741;28;19922;-80
2022/10/23 02:20:12;;;;;;;;;;;;;;;11.35;100.00;100476.38;4993812;28;19918;-80
2022/10/23 02:22:37;;;;;;;;;;;;;;;11.24;100.00;100480.16;4974933;28;19968;-80
2022/10/23 02:25:07;;;;;;;;;;;;;;;11.12;100.00;100480.06;4992054;28;19926;-80
2022/10/23 02:27:39;;;;;;;;;;;;;;;11.14;100.00;100475.63;4995912;28;19964;-80
2022/10/23 02:30:10;;;;;;;;;;;;;;;11.04;100.00;100492.53;4994486;28;19928;-80
2022/10/23 02:32:37;;;;;;;;;;;;;;;11.04;100.00;100481.44;4978086;28;19921;-80
2022/10/23 02:35:03;;;;;;;;;;;;;;;11.05;100.00;100494.88;4994146;28;19924;-80
2022/10/23 02:37:28;;;;;;;;;;;;;;;11.02;100.00;100489.41;4994592;28;19921;-80
2022/10/23 02:39:54;;;;;;;;;;;;;;;10.91;100.00;100492.41;4994095;28;19914;-80
2022/10/23 02:42:28;;;;;;;;;;;;;;;10.88;100.00;100507.13;4993020;28;19918;-80
2022/10/23 02:44:53;;;;;;;;;;;;;;;10.84;100.00;100491.78;4976656;28;19973;-80
2022/10/23 02:47:19;;;;;;;;;;;;;;;10.74;100.00;100490.75;4993596;28;19913;-79
2022/10/23 02:49:57;;;;;;;;;;;;;;;10.69;100.00;100496.81;4995394;28;20000;-79
2022/10/23 02:52:24;;;;;;;;;;;;;;;10.66;100.00;100492.13;4993931;28;19920;-80
2022/10/23 02:54:52;;;;;;;;;;;;;;;10.69;100.00;100491.25;4977986;28;19921;-80
2022/10/23 02:57:22;;;;;;;;;;;;;;;10.67;100.00;100499.25;5018288;23;19925;-81
2022/10/23 02:59:51;;;;;;;;;;;;;;;10.67;100.00;100496.47;5012955;28;20059;-81
2022/10/23 03:02:21;;;;;;;;;;;;;;;10.71;100.00;100491.63;5011918;28;19914;-81
2022/10/23 03:04:48;;;;;;;;;;;;;;;10.69;100.00;100494.03;4977125;28;19957;-81
2022/10/23 03:07:13;;;;;;;;;;;;;;;10.62;100.00;100494.19;4977084;28;20408;-81
2022/10/23 03:09:39;;;;;;;;;;;;;;;10.63;100.00;100495.75;4992884;28;19924;-81
2022/10/23 03:12:05;;;;;;;;;;;;;;;10.66;100.00;100494.88;4993016;28;20062;-80
2022/10/23 03:14:32;;;;;;;;;;;;;;;10.68;100.00;100492.47;5009881;28;19956;-80
2022/10/23 03:16:58;;;;;;;;;;;;;;;10.73;100.00;100500.28;4976634;28;19999;-80
2022/10/23 03:19:24;;;;;;;;;;;;;;;10.73;100.00;100491.97;4976373;28;20387;-80
2022/10/23 03:21:49;;;;;;;;;;;;;;;10.77;100.00;100495.47;5025721;28;19918;-81
2022/10/23 03:24:15;;;;;;;;;;;;;;;10.72;100.00;100490.41;4976322;28;19914;-80
2022/10/23 03:26:42;;;;;;;;;;;;;;;10.75;100.00;100489.56;5009570;28;19976;-80
2022/10/23 03:29:08;;;;;;;;;;;;;;;10.77;100.00;100493.47;4976171;28;19918;-81
2022/10/23 03:31:39;;;;;;;;;;;;;;;10.75;100.00;100492.34;4977694;28;19918;-80
2022/10/23 03:34:09;;;;;;;;;;;;;;;10.79;100.00;100484.72;4976444;28;19921;-81
2022/10/23 03:36:36;;;;;;;;;;;;;;;10.73;100.00;100486.41;4992617;28;19976;-81
2022/10/23 03:39:03;;;;;;;;;;;;;;;10.67;100.00;100488.94;5008946;28;19987;-81
2022/10/23 03:41:29;;;;;;;;;;;;;;;10.60;100.00;100482.72;4987464;23;19923;-80
2022/10/23 03:43:54;;;;;;;;;;;;;;;10.66;100.00;100483.78;4955877;28;20388;-80
2022/10/23 03:46:21;;;;;;;;;;;;;;;10.67;100.00;100496.47;4964131;28;20405;-81
2022/10/23 03:48:49;;;;;;;;;;;;;;;10.66;100.00;100490.13;4958006;28;19922;-80
2022/10/23 03:51:16;;;;;;;;;;;;;;;10.64;100.00;100486.19;4961851;28;19922;-80
2022/10/23 03:53:41;;;;;;;;;;;;;;;10.60;100.00;100485.47;4961198;28;19918;-80
2022/10/23 03:56:07;;;;;;;;;;;;;;;10.64;100.00;100486.97;4968628;28;20008;-85
2022/10/23 03:58:32;;;;;;;;;;;;;;;10.64;100.00;100486.19;4957096;28;19922;-80
2022/10/23 04:00:58;;;;;;;;;;;;;;;10.53;100.00;100491.19;4958938;28;19921;-80
2022/10/23 04:03:23;;;;;;;;;;;;;;;10.49;100.00;100485.69;4944807;28;19925;-80
2022/10/23 04:05:48;;;;;;;;;;;;;;;10.53;100.00;100499.50;4936495;29;19926;-80
2022/10/23 04:08:14;;;;;;;;;;;;;;;10.59;100.00;100495.81;4934961;29;19970;-80
2022/10/23 04:10:39;;;;;;;;;;;;;;;10.54;100.00;100501.06;4940435;29;19919;-79
2022/10/23 04:13:05;;;;;;;;;;;;;;;10.57;100.00;100481.59;4954284;29;20311;-80
2022/10/23 04:15:34;;;;;;;;;;;;;;;10.57;100.00;100492.69;4953654;29;20538;-80
2022/10/23 04:18:00;;;;;;;;;;;;;;;10.56;100.00;100491.09;4938563;29;20370;-84
2022/10/23 04:20:25;;;;;;;;;;;;;;;10.58;100.00;100482.38;4935477;29;20022;-84
2022/10/23 04:22:51;;;;;;;;;;;;;;;10.50;100.00;100492.81;4936178;29;20277;-84
2022/10/23 04:25:16;;;;;;;;;;;;;;;10.40;100.00;100493.00;4934717;29;19923;-84
2022/10/23 04:27:41;;;;;;;;;;;;;;;10.41;100.00;100500.13;4935622;29;19929;-84
2022/10/23 04:30:07;;;;;;;;;;;;;;;10.44;100.00;100499.28;4936247;29;19973;-83
2022/10/23 04:32:32;;;;;;;;;;;;;;;10.45;100.00;100506.38;4936031;29;19926;-84
2022/10/23 04:34:58;;;;;;;;;;;;;;;10.46;100.00;100507.97;4935893;29;19929;-80
2022/10/23 04:37:23;;;;;;;;;;;;;;;10.44;100.00;100493.72;4934455;29;19929;-80
2022/10/23 04:39:49;;;;;;;;;;;;;;;10.40;100.00;100507.66;4934806;29;19926;-80
2022/10/23 04:42:14;;;;;;;;;;;;;;;10.34;100.00;100505.81;4962357;28;19929;-80
2022/10/23 04:44:39;;;;;;;;;;;;;;;10.37;100.00;100499.41;4956873;28;20310;-80
2022/10/23 04:47:06;;;;;;;;;;;;;;;10.42;100.00;100501.69;4962619;28;20597;-80
2022/10/23 04:49:35;;;;;;;;;;;;;;;10.37;100.00;100489.09;4937535;29;19953;-80
2022/10/23 04:52:19;;;;;;;;;;;;;;;10.39;100.00;100481.16;4937170;29;19974;-80
2022/10/23 04:55:07;;;;;;;;;;;;;;;10.42;100.00;100479.50;4946859;28;20005;-80
2022/10/23 04:57:43;;;;;;;;;;;;;;;10.41;100.00;100486.25;4954692;29;20028;-84
2022/10/23 05:00:11;;;;;;;;;;;;;;;10.36;100.00;100472.88;4954173;28;20005;-83
2022/10/23 05:02:44;;;;;;;;;;;;;;;10.39;100.00;100480.38;4944169;28;19901;-83
2022/10/23 05:05:12;;;;;;;;;;;;;;;10.43;100.00;100464.44;4943599;28;19918;-83
2022/10/23 05:07:53;;;;;;;;;;;;;;;10.46;100.00;100469.91;4927265;28;19917;-83
2022/10/23 05:10:41;;;;;;;;;;;;;;;10.50;100.00;100472.63;4947842;28;19924;-83
2022/10/23 05:13:11;;;;;;;;;;;;;;;10.42;100.00;100469.22;4941648;29;19922;-83
2022/10/23 05:15:38;;;;;;;;;;;;;;;10.47;100.00;100470.72;4941774;28;19919;-78
2022/10/23 05:18:08;;;;;;;;;;;;;;;10.44;100.00;100468.75;4942323;29;20753;-81
2022/10/23 05:20:34;;;;;;;;;;;;;;;10.39;100.00;100464.53;4969445;28;20331;-79
2022/10/23 05:22:59;;;;;;;;;;;;;;;10.40;100.00;100481.91;4963158;28;19974;-79
2022/10/23 05:25:25;;;;;;;;;;;;;;;10.46;100.00;100475.47;4953606;28;20390;-80
2022/10/23 05:27:59;;;;;;;;;;;;;;;10.48;100.00;100473.03;4940218;28;20308;-80
2022/10/23 05:30:24;;;;;;;;;;;;;;;10.51;100.00;100488.06;4950354;28;19927;-81
2022/10/23 05:32:50;;;;;;;;;;;;;;;10.52;100.00;100493.16;4944551;28;20017;-80
2022/10/23 05:35:20;;;;;;;;;;;;;;;10.55;100.00;100499.88;4941598;28;19946;-84
2022/10/23 05:37:47;;;;;;;;;;;;;;;10.52;100.00;100490.41;4967706;28;19918;-84
2022/10/23 05:40:18;;;;;;;;;;;;;;;10.48;100.00;100488.91;4959678;28;19936;-82
2022/10/23 05:42:44;;;;;;;;;;;;;;;10.48;100.00;100500.00;4958377;28;19932;-82
2022/10/23 05:45:13;;;;;;;;;;;;;;;10.48;100.00;100489.69;4951940;29;19973;-82
2022/10/23 05:47:59;;;;;;;;;;;;;;;10.51;100.00;100479.75;4967727;28;20398;-82
2022/10/23 05:50:44;;;;;;;;;;;;;;;10.52;100.00;100484.84;4940826;29;19974;-80
2022/10/23 05:53:19;;;;;;;;;;;;;;;10.53;100.00;100491.19;4948659;28;20012;-83
2022/10/23 05:55:53;;;;;;;;;;;;;;;10.50;100.00;100498.38;4953186;29;19918;-82
2022/10/23 05:58:41;;;;;;;;;;;;;;;10.53;100.00;100496.72;4950052;28;20375;-82
2022/10/23 06:01:36;;;;;;;;;;;;;;;10.54;100.00;100498.31;4961077;28;19922;-82
2022/10/23 06:04:05;;;;;;;;;;;;;;;10.55;100.00;100500.66;4940555;29;20016;-82
2022/10/23 06:06:50;;;;;;;;;;;;;;;10.56;100.00;100493.09;4940391;29;19918;-82
2022/10/23 06:09:17;;;;;;;;;;;;;;;10.60;100.00;100508.47;4943052;28;19962;-82
2022/10/23 06:11:43;;;;;;;;;;;;;;;10.64;100.00;100498.09;4956194;28;19918;-82
2022/10/23 06:14:15;;;;;;;;;;;;;;;10.65;100.00;100501.66;4958212;28;19914;-79
2022/10/23 06:16:41;;;;;;;;;;;;;;;10.61;100.00;100493.38;4931797;28;19941;-81
2022/10/23 06:19:10;;;;;;;;;;;;;;;10.65;100.00;100504.41;4932857;28;20328;-80
2022/10/23 06:21:37;;;;;;;;;;;;;;;10.71;100.00;100505.50;4929385;28;20068;-80
2022/10/23 06:24:04;;;;;;;;;;;;;;;10.75;100.00;100514.53;4952168;28;19924;-80
2022/10/23 06:26:36;;;;;;;;;;;;;;;10.78;100.00;100499.81;4946306;28;19924;-80
2022/10/23 06:29:07;;;;;;;;;;;;;;;10.81;100.00;100501.72;4946245;28;19919;-80
2022/10/23 06:31:34;;;;;;;;;;;;;;;10.82;100.00;100503.28;4947677;28;19926;-81
2022/10/23 06:34:00;;;;;;;;;;;;;;;10.88;100.00;100501.56;4947682;28;19918;-81
2022/10/23 06:36:28;;;;;;;;;;;;;;;10.89;100.00;100505.91;4946698;28;19924;-81
2022/10/23 06:39:10;;;;;;;;;;;;;;;10.81;100.00;100510.03;4966267;28;19925;-81
2022/10/23 06:41:54;;;;;;;;;;;;;;;10.76;100.00;100499.44;4965270;28;20135;-81
2022/10/23 06:44:38;;;;;;;;;;;;;;;10.76;100.00;100507.75;4965742;28;19928;-81
2022/10/23 06:47:19;;;;;;;;;;;;;;;10.74;100.00;100507.41;4945183;28;19928;-81
2022/10/23 06:50:04;;;;;;;;;;;;;;;10.68;100.00;100509.09;4968106;28;19970;-83
2022/10/23 06:52:30;;;;;;;;;;;;;;;10.75;100.00;100509.78;4959313;28;19922;-83
2022/10/23 06:54:56;;;;;;;;;;;;;;;10.83;100.00;100515.97;4945035;28;19918;-83
2022/10/23 06:57:24;;;;;;;;;;;;;;;10.80;100.00;100514.00;4947243;28;19958;-83
2022/10/23 06:59:49;;;;;;;;;;;;;;;10.83;100.00;100518.75;4945872;28;20011;-83
2022/10/23 07:02:15;;;;;;;;;;;;;;;10.87;100.00;100527.00;4948098;28;19925;-85
2022/10/23 07:04:40;;;;;;;;;;;;;;;10.90;100.00;100526.13;4947486;28;19918;-82
2022/10/23 07:07:12;;;;;;;;;;;;;;;10.84;100.00;100528.59;4944962;28;19924;-83
2022/10/23 07:09:44;;;;;;;;;;;;;;;10.90;100.00;100523.34;4964106;28;19988;-81
2022/10/23 07:12:20;;;;;;;;;;;;;;;10.85;100.00;100532.94;4945450;28;19924;-80
2022/10/23 07:14:51;;;;;;;;;;;;;;;10.81;100.00;100537.78;4948913;28;20456;-81
2022/10/23 07:17:16;;;;;;;;;;;;;;;10.83;100.00;100532.63;4945059;28;20005;-81
2022/10/23 07:19:41;;;;;;;;;;;;;;;10.88;100.00;100523.75;4948388;28;19918;-80
2022/10/23 07:22:12;;;;;;;;;;;;;;;10.76;100.00;100524.41;4942217;28;19918;-82
2022/10/23 07:24:58;;;;;;;;;;;;;;;10.83;100.00;100521.50;4929424;28;19922;-80
2022/10/23 07:27:34;;;;;;;;;;;;;;;10.92;100.00;100530.03;4946895;28;19918;-80
2022/10/23 07:30:00;;;;;;;;;;;;;;;10.93;100.00;100531.59;4943445;28;19926;-80
2022/10/23 07:32:30;;;;;;;;;;;;;;;10.82;100.00;100531.03;4944989;28;19942;-82
2022/10/23 07:35:14;;;;;;;;;;;;;;;10.93;100.00;100531.59;4960650;28;19929;-80
2022/10/23 07:37:50;;;;;;;;;;;;;;;10.94;100.00;100526.84;4937816;28;20026;-81
2022/10/23 07:40:17;;;;;;;;;;;;;;;10.90;100.00;100532.47;4939784;28;380108;-80
2022/10/23 07:42:43;;;;;;;;;;;;;;;10.91;100.00;100531.25;4941582;28;19918;-80
2022/10/23 07:45:09;;;;;;;;;;;;;;;10.93;100.00;100526.06;4948099;28;19925;-82
2022/10/23 07:47:38;;;;;;;;;;;;;;;10.99;100.00;100524.34;4948235;28;20458;-82
2022/10/23 07:50:03;;;;;;;;;;;;;;;10.99;100.00;100521.56;4945835;28;19997;-83
2022/10/23 07:52:29;;;;;;;;;;;;;;;11.03;100.00;100521.50;4944073;28;19919;-83
2022/10/23 07:55:23;;;;;;;;;;;;;;;11.13;100.00;100526.81;4935213;28;19927;-83
2022/10/23 07:57:55;;;;;;;;;;;;;;;11.20;100.00;100531.47;4931739;28;19968;-83
2022/10/23 08:00:40;;;;;;;;;;;;;;;11.22;100.00;100537.34;4951101;28;19919;-82
2022/10/23 08:03:13;;;;;;;;;;;;;;;11.26;100.00;100537.28;4949549;28;20336;-82
2022/10/23 08:05:39;;;;;;;;;;;;;;;11.27;100.00;100533.28;4944524;29;19918;-82
2022/10/23 08:08:05;;;;;;;;;;;;;;;11.28;100.00;100535.66;4958318;28;19949;-80
2022/10/23 08:10:30;;;;;;;;;;;;;;;11.24;100.00;100535.69;4951801;28;19922;-80
2022/10/23 08:12:56;;;;;;;;;;;;;;;11.22;100.00;100532.59;4954478;28;20024;-80
2022/10/23 08:15:39;;;;;;;;;;;;;;;11.32;100.00;100535.56;4947959;28;19969;-79
2022/10/23 08:18:13;;;;;;;;;;;;;;;11.38;100.00;100536.59;4947133;28;19922;-80
2022/10/23 08:20:44;;;;;;;;;;;;;;;11.46;100.00;100535.25;4943812;28;19918;-81
2022/10/23 08:23:11;;;;;;;;;;;;;;;11.41;100.00;100538.50;4944646;29;19914;-82
2022/10/23 08:25:37;;;;;;;;;;;;;;;11.43;100.00;100528.56;4953308;28;20391;-82
2022/10/23 08:28:02;;;;;;;;;;;;;;;11.56;100.00;100523.13;4952767;28;19918;-82
2022/10/23 08:30:28;;;;;;;;;;;;;;;11.66;100.00;100522.06;4949511;28;19918;-82
2022/10/23 08:32:54;;;;;;;;;;;;;;;11.75;100.00;100519.50;4938418;28;19925;-82
2022/10/23 08:35:19;;;;;;;;;;;;;;;11.80;100.00;100521.78;4954757;28;19925;-82
2022/10/23 08:37:45;;;;;;;;;;;;;;;11.87;100.00;100524.38;4965375;28;20439;-82
2022/10/23 08:40:17;;;;;;;;;;;;;;;11.93;100.00;100535.78;4941181;28;19918;-82
2022/10/23 08:43:10;;;;;;;;;;;;;;;11.90;100.00;100531.84;4940155;29;19925;-83
2022/10/23 08:45:45;;;;;;;;;;;;;;;11.94;100.00;100537.31;4963445;28;20458;-82
2022/10/23 08:48:31;;;;;;;;;;;;;;;11.86;100.00;100531.16;4947089;29;20299;-83
2022/10/23 08:51:28;;;;;;;;;;;;;;;11.83;100.00;100540.38;4956193;28;20000;-82
2022/10/23 08:54:03;;;;;;;;;;;;;;;11.76;100.00;100532.19;4965985;28;20311;-82
2022/10/23 08:56:36;;;;;;;;;;;;;;;11.81;100.00;100534.44;4958569;28;19918;-82
2022/10/23 08:59:21;;;;;;;;;;;;;;;11.84;100.00;100530.81;4957608;28;20368;-82
2022/10/23 09:02:10;;;;;;;;;;;;;;;11.82;100.00;100524.91;4971754;28;19918;-81
2022/10/23 09:04:35;;;;;;;;;;;;;;;11.88;100.00;100527.94;4938245;29;19918;-79
2022/10/23 09:07:07;;;;;;;;;;;;;;;11.93;100.00;100522.63;4970186;28;19925;-79
2022/10/23 09:09:32;;;;;;;;;;;;;;;11.94;100.00;100521.41;4969377;28;19964;-80
2022/10/23 09:12:05;;;;;;;;;;;;;;;11.95;100.00;100517.44;4950508;28;19969;-79
2022/10/23 09:14:34;;;;;;;;;;;;;;;12.03;100.00;100513.25;4945107;28;19914;-79
2022/10/23 09:17:14;;;;;;;;;;;;;;;12.09;100.00;100517.06;4972856;28;20376;-80
2022/10/23 09:19:40;;;;;;;;;;;;;;;12.09;100.00;100517.06;4968574;28;19957;-81
2022/10/23 09:22:05;;;;;;;;;;;;;;;12.15;100.00;100515.34;4962441;28;20331;-80
2022/10/23 09:24:32;;;;;;;;;;;;;;;12.20;100.00;100507.69;4965218;28;19918;-78
2022/10/23 09:26:57;;;;;;;;;;;;;;;12.23;100.00;100501.25;4959006;28;19923;-80
2022/10/23 09:29:27;;;;;;;;;;;;;;;12.30;100.00;100506.59;4938471;28;19918;-79
2022/10/23 09:31:54;;;;;;;;;;;;;;;12.32;100.00;100515.31;4940725;28;19930;-80
2022/10/23 09:34:23;;;;;;;;;;;;;;;12.42;100.00;100511.44;4958632;28;19939;-80
2022/10/23 09:36:50;;;;;;;;;;;;;;;12.46;100.00;100506.56;4959276;28;20001;-80
2022/10/23 09:39:27;;;;;;;;;;;;;;;12.45;100.00;100502.25;4958261;28;19925;-80
2022/10/23 09:41:52;;;;;;;;;;;;;;;12.43;100.00;100510.25;4945913;28;19918;-82
2022/10/23 09:44:21;;;;;;;;;;;;;;;12.49;100.00;100500.16;4941513;28;20847;-83
2022/10/23 09:46:49;;;;;;;;;;;;;;;12.56;100.00;100499.97;4924953;28;20367;-82
2022/10/23 09:49:22;;;;;;;;;;;;;;;12.60;100.00;100504.19;4963585;28;20302;-83
2022/10/23 09:52:15;;;;;;;;;;;;;;;12.59;100.00;100508.19;4960122;28;20386;-82
2022/10/23 09:54:44;;;;;;;;;;;;;;;12.60;100.00;100500.63;4960931;28;19918;-83
2022/10/23 09:57:23;;;;;;;;;;;;;;;12.72;100.00;100499.91;4963014;28;20291;-82
2022/10/23 09:59:49;;;;;;;;;;;;;;;12.80;100.00;100504.03;4943929;28;19925;-83
2022/10/23 10:02:18;;;;;;;;;;;;;;;12.76;100.00;100503.38;4939433;28;20004;-82
2022/10/23 10:04:58;;;;;;;;;;;;;;;12.84;100.00;100504.72;4931622;28;19981;-82
2022/10/23 10:07:25;;;;;;;;;;;;;;;12.86;100.00;100507.84;4946686;28;19929;-82
2022/10/23 10:09:54;;;;;;;;;;;;;;;12.86;100.00;100501.50;4928931;28;19981;-83
2022/10/23 10:12:38;;;;;;;;;;;;;;;12.85;100.00;100506.28;4963425;28;20272;-83
2022/10/23 10:15:13;;;;;;;;;;;;;;;12.85;100.00;100497.94;4937540;29;19922;-82
2022/10/23 10:17:56;;;;;;;;;;;;;;;12.88;100.00;100497.06;4949121;28;19930;-81
2022/10/23 10:20:25;;;;;;;;;;;;;;;12.86;100.00;100491.13;4934592;28;20343;-82
2022/10/23 10:23:06;;;;;;;;;;;;;;;12.89;100.00;100495.84;4956809;28;19978;-83
2022/10/23 10:25:35;;;;;;;;;;;;;;;12.98;100.00;100481.28;4951319;28;20267;-82
2022/10/23 10:28:13;;;;;;;;;;;;;;;13.07;100.00;100479.38;4951099;28;20340;-82
2022/10/23 10:31:08;;;;;;;;;;;;;;;13.15;100.00;100484.75;4959723;28;19925;-82
2022/10/23 10:33:40;;;;;;;;;;;;;;;13.32;100.00;100480.66;4885869;28;19920;-83
2022/10/23 10:36:24;;;;;;;;;;;;;;;13.41;100.00;100480.78;4947617;28;19918;-82
2022/10/23 10:38:50;;;;;;;;;;;;;;;13.45;100.00;100464.72;4964301;28;19921;-83
2022/10/23 10:41:19;;;;;;;;;;;;;;;13.46;100.00;100466.28;4941323;28;19919;-82
2022/10/23 10:43:50;;;;;;;;;;;;;;;13.52;100.00;100464.50;4948496;28;20005;-83
2022/10/23 10:46:22;;;;;;;;;;;;;;;13.57;100.00;100438.06;4949762;28;19924;-82
2022/10/23 10:48:53;;;;;;;;;;;;;;;13.65;100.00;100454.13;4955068;28;19954;-83
2022/10/23 10:51:28;;;;;;;;;;;;;;;13.72;100.00;100451.09;4962824;28;19919;-83
2022/10/23 10:53:58;;;;;;;;;;;;;;;13.85;100.00;100453.88;4946155;28;19949;-82
2022/10/23 10:56:24;;;;;;;;;;;;;;;13.90;100.00;100445.72;4944743;28;20380;-83
2022/10/23 10:58:50;;;;;;;;;;;;;;;13.99;100.00;100431.84;4946683;28;19925;-80
2022/10/23 11:01:16;;;;;;;;;;;;;;;13.98;100.00;100427.50;4942229;28;19950;-80
2022/10/23 11:03:43;;;;;;;;;;;;;;;14.09;100.00;100424.34;4958799;28;19926;-80
2022/10/23 11:06:11;;;;;;;;;;;;;;;14.13;100.00;100424.22;4959352;28;19907;-80
2022/10/23 11:08:40;;;;;;;;;;;;;;;14.11;100.00;100421.13;4951841;28;19914;-80
2022/10/23 11:11:13;;;;;;;;;;;;;;;14.11;100.00;100409.97;4945678;28;19972;-80
2022/10/23 11:13:39;;;;;;;;;;;;;;;14.14;100.00;100414.63;4946474;28;20004;-80
2022/10/23 11:16:09;;;;;;;;;;;;;;;14.20;100.00;100398.84;4960644;28;19926;-80
2022/10/23 11:18:35;;;;;;;;;;;;;;;14.25;100.00;100409.44;4945332;28;20013;-82
2022/10/23 11:21:20;;;;;;;;;;;;;;;14.27;100.00;100401.41;4961387;28;20016;-82
2022/10/23 11:23:51;;;;;;;;;;;;;;;14.29;100.00;100402.50;4954059;28;20285;-83
2022/10/23 11:26:26;;;;;;;;;;;;;;;14.31;100.00;100391.69;4959673;28;19920;-82
2022/10/23 11:29:02;;;;;;;;;;;;;;;14.38;100.00;100387.88;4950584;28;19918;-83
2022/10/23 11:31:30;;;;;;;;;;;;;;;14.44;100.00;100383.25;4945148;28;20333;-83
2022/10/23 11:34:16;;;;;;;;;;;;;;;14.49;100.00;100374.28;4969463;28;20008;-83
2022/10/23 11:36:42;;;;;;;;;;;;;;;14.59;100.00;100373.13;4960641;28;20297;-81
2022/10/23 11:39:21;;;;;;;;;;;;;;;14.66;100.00;100364.47;4949144;28;19982;-80
2022/10/23 11:41:51;;;;;;;;;;;;;;;14.71;100.00;100358.31;4952880;28;20442;-81
2022/10/23 11:44:46;;;;;;;;;;;;;;;14.79;100.00;100361.59;4950097;28;20312;-81
2022/10/23 11:47:23;;;;;;;;;;;;;;;14.85;100.00;100357.75;4938707;28;20419;-81
2022/10/23 11:49:48;;;;;;;;;;;;;;;14.87;100.00;100358.06;4971867;28;19926;-81
2022/10/23 11:52:21;;;;;;;;;;;;;;;14.96;100.00;100350.97;4965416;28;19914;-81
2022/10/23 11:54:46;;;;;;;;;;;;;;;14.96;100.00;100342.59;4957108;28;19930;-81
2022/10/23 11:57:12;;;;;;;;;;;;;;;15.04;100.00;100352.25;4963263;28;19925;-83
2022/10/23 11:59:40;;;;;;;;;;;;;;;15.04;100.00;100346.66;4927973;28;19922;-83
2022/10/23 12:02:18;;;;;;;;;;;;;;;15.02;100.00;100335.94;4958346;28;19918;-83
2022/10/23 12:04:47;;;;;;;;;;;;;;;15.06;100.00;100342.16;4952404;28;19928;-83
2022/10/23 12:07:33;;;;;;;;;;;;;;;15.10;100.00;100336.41;4958078;28;19997;-83
2022/10/23 12:10:25;;;;;;;;;;;;;;;15.04;100.00;100338.28;4965655;28;19926;-83
2022/10/23 12:13:02;;;;;;;;;;;;;;;15.07;100.00;100329.75;4942182;28;19928;-82
2022/10/23 12:15:28;;;;;;;;;;;;;;;15.09;100.00;100324.47;4944850;28;20017;-84
2022/10/23 12:17:54;;;;;;;;;;;;;;;15.08;100.00;100316.56;4943309;28;19981;-83
2022/10/23 12:20:35;;;;;;;;;;;;;;;15.08;100.00;100308.97;4926929;28;19992;-81
2022/10/23 12:23:18;;;;;;;;;;;;;;;15.11;100.00;100307.25;4942280;28;19922;-83
2022/10/23 12:25:53;;;;;;;;;;;;;;;15.13;100.00;100307.56;4961295;28;20062;-83
2022/10/23 12:28:24;;;;;;;;;;;;;;;15.13;100.00;100304.75;4962427;28;19968;-83
2022/10/23 12:30:49;;;;;;;;;;;;;;;15.24;100.00;100302.31;4958710;28;19925;-83
2022/10/23 12:33:18;;;;;;;;;;;;;;;15.23;100.00;100293.16;4960496;28;19919;-83
2022/10/23 12:35:55;;;;;;;;;;;;;;;15.27;100.00;100293.00;4959666;28;19918;-83
2022/10/23 12:38:23;;;;;;;;;;;;;;;15.33;100.00;100283.53;4964325;28;19922;-83
2022/10/23 12:41:07;;;;;;;;;;;;;;;15.38;100.00;100282.94;4924117;29;19923;-81
2022/10/23 12:43:33;;;;;;;;;;;;;;;15.49;100.00;100276.88;4938636;29;20340;-82
2022/10/23 12:46:02;;;;;;;;;;;;;;;15.59;100.00;100286.09;4940070;29;19927;-82